sensor_id;sensor_type;location;lat;lon;timestamp;pressure;altitude;pressure_sealevel;temperature;humidity
55540;BME280;41384;51.418;7.286;2023-01-28T00:02:05;101002.91;;;2.90;94.56
55540;BME280;41384;51.418;7.286;2023-01-28T00:04:31;101002.72;;;2.82;93.81
55540;BME280;41384;51.418;7.286;2023-01-28T00:06:56;101004.31;;;2.95;94.85
55540;BME280;41384;51.418;7.286;2023-01-28T00:09:21;101000.28;;;2.90;91.78
55540;BME280;41384;51.418;7.286;2023-01-28T00:11:46;101005.69;;;2.99;91.02
55540;BME280;41384;51.418;7.286;2023-01-28T00:14:12;100995.28;;;2.99;93.46
55540;BME280;41384;51.418;7.286;2023-01-28T00:16:37;100996.16;;;3.09;90.89
55540;BME280;41384;51.418;7.286;2023-01-28T00:19:03;100992.84;;;2.65;90.89
55540;BME280;41384;51.418;7.286;2023-01-28T00:21:28;101004.09;;;2.86;91.70
55540;BME280;41384;51.418;7.286;2023-01-28T00:23:54;100999.34;;;2.91;90.32
55540;BME280;41384;51.418;7.286;2023-01-28T00:26:21;100996.28;;;2.86;92.20
55540;BME280;41384;51.418;7.286;2023-01-28T00:28:47;100989.44;;;3.06;92.89
55540;BME280;41384;51.418;7.286;2023-01-28T00:31:20;100981.09;;;2.91;90.42
55540;BME280;41384;51.418;7.286;2023-01-28T00:33:48;100990.13;;;2.87;91.83
55540;BME280;41384;51.418;7.286;2023-01-28T00:36:14;100989.63;;;2.72;92.30
55540;BME280;41384;51.418;7.286;2023-01-28T00:38:40;100996.94;;;2.79;90.59
55540;BME280;41384;51.418;7.286;2023-01-28T00:41:14;100996.72;;;2.91;90.84
55540;BME280;41384;51.418;7.286;2023-01-28T00:43:40;100994.44;;;2.77;92.58
55540;BME280;41384;51.418;7.286;2023-01-28T00:46:08;100995.47;;;2.86;90.16
55540;BME280;41384;51.418;7.286;2023-01-28T00:48:34;100991.38;;;2.72;89.86
55540;BME280;41384;51.418;7.286;2023-01-28T00:51:00;101001.44;;;2.98;90.91
55540;BME280;41384;51.418;7.286;2023-01-28T00:53:26;100990.34;;;2.63;90.98
55540;BME280;41384;51.418;7.286;2023-01-28T00:55:51;101000.94;;;2.83;93.95
55540;BME280;41384;51.418;7.286;2023-01-28T00:58:17;101001.59;;;2.63;91.00
55540;BME280;41384;51.418;7.286;2023-01-28T01:00:42;101000.28;;;2.69;91.54
55540;BME280;41384;51.418;7.286;2023-01-28T01:03:07;101008.56;;;2.74;90.47
55540;BME280;41384;51.418;7.286;2023-01-28T01:05:32;101011.19;;;2.74;91.12
55540;BME280;41384;51.418;7.286;2023-01-28T01:07:59;101008.81;;;2.92;91.58
55540;BME280;41384;51.418;7.286;2023-01-28T01:10:24;101001.84;;;2.93;90.02
55540;BME280;41384;51.418;7.286;2023-01-28T01:12:50;100999.22;;;2.93;91.03
55540;BME280;41384;51.418;7.286;2023-01-28T01:15:16;100995.22;;;3.10;88.95
55540;BME280;41384;51.418;7.286;2023-01-28T01:17:45;100992.03;;;2.85;90.63
55540;BME280;41384;51.418;7.286;2023-01-28T01:20:20;101009.25;;;2.98;90.14
55540;BME280;41384;51.418;7.286;2023-01-28T01:22:46;100997.75;;;2.79;91.73
55540;BME280;41384;51.418;7.286;2023-01-28T01:25:13;100996.03;;;2.89;91.62
55540;BME280;41384;51.418;7.286;2023-01-28T01:27:39;100992.81;;;2.97;89.88
55540;BME280;41384;51.418;7.286;2023-01-28T01:30:05;100994.91;;;2.50;92.45
55540;BME280;41384;51.418;7.286;2023-01-28T01:32:32;100997.69;;;2.69;91.44
55540;BME280;41384;51.418;7.286;2023-01-28T01:35:01;100995.41;;;2.97;89.85
55540;BME280;41384;51.418;7.286;2023-01-28T01:37:27;100998.91;;;2.86;91.92
55540;BME280;41384;51.418;7.286;2023-01-28T01:39:53;101005.69;;;2.99;91.94
55540;BME280;41384;51.418;7.286;2023-01-28T01:42:18;100996.88;;;2.90;90.68
55540;BME280;41384;51.418;7.286;2023-01-28T01:50:08;101006.06;;;2.73;92.02
55540;BME280;41384;51.418;7.286;2023-01-28T01:52:37;101006.16;;;3.04;91.11
55540;BME280;41384;51.418;7.286;2023-01-28T01:55:07;101005.25;;;2.94;90.16
55540;BME280;41384;51.418;7.286;2023-01-28T01:57:35;101013.59;;;2.87;90.96
55540;BME280;41384;51.418;7.286;2023-01-28T02:00:03;101013.03;;;2.51;93.15
55540;BME280;41384;51.418;7.286;2023-01-28T02:02:33;101027.78;;;2.29;92.95
55540;BME280;41384;51.418;7.286;2023-01-28T02:05:00;101012.25;;;2.72;90.40
55540;BME280;41384;51.418;7.286;2023-01-28T02:07:25;101008.81;;;2.39;92.26
55540;BME280;41384;51.418;7.286;2023-01-28T02:09:51;101006.06;;;2.73;90.83
55540;BME280;41384;51.418;7.286;2023-01-28T02:12:20;101007.72;;;2.74;90.49
55540;BME280;41384;51.418;7.286;2023-01-28T02:14:51;101013.09;;;2.61;90.54
55540;BME280;41384;51.418;7.286;2023-01-28T02:17:19;101020.44;;;2.67;91.05
55540;BME280;41384;51.418;7.286;2023-01-28T02:25:36;101012.59;;;2.79;88.36
55540;BME280;41384;51.418;7.286;2023-01-28T02:28:22;101017.34;;;2.73;88.33
55540;BME280;41384;51.418;7.286;2023-01-28T02:30:51;101018.66;;;2.68;89.27
55540;BME280;41384;51.418;7.286;2023-01-28T02:33:42;101020.41;;;2.79;87.88
55540;BME280;41384;51.418;7.286;2023-01-28T02:36:17;101025.47;;;2.80;89.15
55540;BME280;41384;51.418;7.286;2023-01-28T02:38:47;101023.88;;;2.68;88.85
55540;BME280;41384;51.418;7.286;2023-01-28T02:41:28;101029.47;;;2.52;88.98
55540;BME280;41384;51.418;7.286;2023-01-28T02:43:54;101037.19;;;2.53;89.13
55540;BME280;41384;51.418;7.286;2023-01-28T02:49:15;101032.88;;;2.63;86.82
55540;BME280;41384;51.418;7.286;2023-01-28T02:52:13;101035.91;;;2.47;89.10
55540;BME280;41384;51.418;7.286;2023-01-28T02:54:54;101037.44;;;2.50;88.46
55540;BME280;41384;51.418;7.286;2023-01-28T02:57:34;101037.03;;;2.66;88.89
55540;BME280;41384;51.418;7.286;2023-01-28T03:00:07;101036.09;;;2.23;88.87
55540;BME280;41384;51.418;7.286;2023-01-28T03:02:36;101032.78;;;2.54;89.77
55540;BME280;41384;51.418;7.286;2023-01-28T03:05:28;101035.34;;;2.32;89.70
55540;BME280;41384;51.418;7.286;2023-01-28T03:07:55;101035.53;;;2.52;87.94
55540;BME280;41384;51.418;7.286;2023-01-28T03:10:23;101034.97;;;2.37;87.53
55540;BME280;41384;51.418;7.286;2023-01-28T03:12:53;101033.84;;;2.62;86.44
55540;BME280;41384;51.418;7.286;2023-01-28T03:15:40;101031.59;;;2.69;86.79
55540;BME280;41384;51.418;7.286;2023-01-28T03:18:39;101030.00;;;2.34;88.23
55540;BME280;41384;51.418;7.286;2023-01-28T03:21:41;101024.16;;;2.53;87.84
55540;BME280;41384;51.418;7.286;2023-01-28T03:24:41;101030.19;;;2.65;87.33
55540;BME280;41384;51.418;7.286;2023-01-28T03:30:42;101022.16;;;2.45;85.97
55540;BME280;41384;51.418;7.286;2023-01-28T03:33:28;101018.84;;;2.43;86.49
55540;BME280;41384;51.418;7.286;2023-01-28T03:36:13;101012.28;;;2.60;86.44
55540;BME280;41384;51.418;7.286;2023-01-28T03:38:56;101013.44;;;2.68;86.61
55540;BME280;41384;51.418;7.286;2023-01-28T03:41:24;101022.22;;;2.67;84.89
55540;BME280;41384;51.418;7.286;2023-01-28T03:43:50;101018.00;;;2.54;84.41
55540;BME280;41384;51.418;7.286;2023-01-28T03:46:18;101016.34;;;2.53;85.59
55540;BME280;41384;51.418;7.286;2023-01-28T03:48:43;101023.84;;;2.35;84.30
55540;BME280;41384;51.418;7.286;2023-01-28T03:51:10;101029.38;;;1.86;86.16
55540;BME280;41384;51.418;7.286;2023-01-28T03:53:37;101037.03;;;2.22;85.09
55540;BME280;41384;51.418;7.286;2023-01-28T03:56:02;101041.34;;;2.44;84.78
55540;BME280;41384;51.418;7.286;2023-01-28T03:58:28;101037.75;;;2.57;83.50
55540;BME280;41384;51.418;7.286;2023-01-28T04:01:10;101035.78;;;2.49;83.95
55540;BME280;41384;51.418;7.286;2023-01-28T04:03:35;101044.56;;;2.48;83.74
55540;BME280;41384;51.418;7.286;2023-01-28T04:06:03;101042.66;;;2.50;83.84
55540;BME280;41384;51.418;7.286;2023-01-28T04:08:29;101035.44;;;2.42;84.86
55540;BME280;41384;51.418;7.286;2023-01-28T04:10:55;101036.63;;;2.38;84.08
55540;BME280;41384;51.418;7.286;2023-01-28T04:13:20;101035.03;;;2.58;83.53
55540;BME280;41384;51.418;7.286;2023-01-28T04:15:46;101037.34;;;2.40;85.76
55540;BME280;41384;51.418;7.286;2023-01-28T04:18:11;101044.06;;;2.54;84.20
55540;BME280;41384;51.418;7.286;2023-01-28T04:20:37;101048.94;;;2.47;84.17
55540;BME280;41384;51.418;7.286;2023-01-28T04:23:03;101049.09;;;2.35;84.38
55540;BME280;41384;51.418;7.286;2023-01-28T04:25:29;101054.00;;;2.60;81.66
55540;BME280;41384;51.418;7.286;2023-01-28T04:27:55;101053.16;;;2.60;81.43
55540;BME280;41384;51.418;7.286;2023-01-28T04:30:21;101049.41;;;2.41;81.77
55540;BME280;41384;51.418;7.286;2023-01-28T04:32:46;101049.28;;;2.54;82.36
55540;BME280;41384;51.418;7.286;2023-01-28T04:35:11;101043.50;;;2.39;85.26
55540;BME280;41384;51.418;7.286;2023-01-28T04:37:39;101041.91;;;2.59;82.09
55540;BME280;41384;51.418;7.286;2023-01-28T04:40:05;101050.06;;;2.22;81.57
55540;BME280;41384;51.418;7.286;2023-01-28T04:42:30;101041.78;;;2.06;81.86
55540;BME280;41384;51.418;7.286;2023-01-28T04:44:55;101048.84;;;2.38;82.66
55540;BME280;41384;51.418;7.286;2023-01-28T04:47:21;101054.19;;;2.69;81.39
55540;BME280;41384;51.418;7.286;2023-01-28T04:49:46;101056.25;;;2.54;80.41
55540;BME280;41384;51.418;7.286;2023-01-28T04:52:11;101063.84;;;2.45;81.63
55540;BME280;41384;51.418;7.286;2023-01-28T04:54:36;101060.28;;;2.58;81.60
55540;BME280;41384;51.418;7.286;2023-01-28T04:57:02;101066.97;;;2.28;82.91
55540;BME280;41384;51.418;7.286;2023-01-28T04:59:27;101064.66;;;2.57;80.29
55540;BME280;41384;51.418;7.286;2023-01-28T05:01:52;101056.72;;;2.59;80.37
55540;BME280;41384;51.418;7.286;2023-01-28T05:04:18;101062.09;;;2.46;80.24
55540;BME280;41384;51.418;7.286;2023-01-28T05:06:43;101054.03;;;2.49;81.11
55540;BME280;41384;51.418;7.286;2023-01-28T05:09:08;101052.16;;;2.40;80.47
55540;BME280;41384;51.418;7.286;2023-01-28T05:11:33;101063.13;;;2.55;80.03
55540;BME280;41384;51.418;7.286;2023-01-28T05:13:59;101050.16;;;2.32;80.85
55540;BME280;41384;51.418;7.286;2023-01-28T05:16:24;101045.19;;;2.29;78.99
55540;BME280;41384;51.418;7.286;2023-01-28T05:18:49;101051.06;;;2.42;79.59
55540;BME280;41384;51.418;7.286;2023-01-28T05:21:16;101048.97;;;2.36;78.13
55540;BME280;41384;51.418;7.286;2023-01-28T05:23:41;101049.06;;;2.46;79.38
55540;BME280;41384;51.418;7.286;2023-01-28T05:26:07;101048.34;;;2.44;81.50
55540;BME280;41384;51.418;7.286;2023-01-28T05:28:32;101051.47;;;2.38;78.11
55540;BME280;41384;51.418;7.286;2023-01-28T05:31:05;101045.06;;;2.19;77.90
55540;BME280;41384;51.418;7.286;2023-01-28T05:33:31;101053.72;;;2.31;77.88
55540;BME280;41384;51.418;7.286;2023-01-28T05:35:56;101053.75;;;2.08;78.85
55540;BME280;41384;51.418;7.286;2023-01-28T05:38:22;101054.78;;;2.28;79.39
55540;BME280;41384;51.418;7.286;2023-01-28T05:40:47;101064.59;;;2.25;79.88
55540;BME280;41384;51.418;7.286;2023-01-28T05:43:13;101063.31;;;2.08;78.46
55540;BME280;41384;51.418;7.286;2023-01-28T05:45:39;101069.72;;;2.26;78.49
55540;BME280;41384;51.418;7.286;2023-01-28T05:48:04;101074.06;;;2.37;77.38
55540;BME280;41384;51.418;7.286;2023-01-28T05:50:30;101070.28;;;2.30;77.12
55540;BME280;41384;51.418;7.286;2023-01-28T05:52:55;101074.81;;;2.05;77.23
55540;BME280;41384;51.418;7.286;2023-01-28T05:55:20;101066.06;;;2.06;79.61
55540;BME280;41384;51.418;7.286;2023-01-28T05:57:47;101079.28;;;2.26;81.52
55540;BME280;41384;51.418;7.286;2023-01-28T06:00:12;101080.72;;;2.30;79.45
55540;BME280;41384;51.418;7.286;2023-01-28T06:02:38;101085.19;;;2.39;78.15
55540;BME280;41384;51.418;7.286;2023-01-28T06:05:04;101080.75;;;2.07;78.56
55540;BME280;41384;51.418;7.286;2023-01-28T06:07:29;101091.34;;;2.38;78.03
55540;BME280;41384;51.418;7.286;2023-01-28T06:09:55;101099.91;;;2.06;76.53
55540;BME280;41384;51.418;7.286;2023-01-28T06:12:20;101097.41;;;2.39;78.09
55540;BME280;41384;51.418;7.286;2023-01-28T06:14:45;101100.97;;;2.38;77.68
55540;BME280;41384;51.418;7.286;2023-01-28T06:17:10;101089.50;;;1.83;76.46
55540;BME280;41384;51.418;7.286;2023-01-28T06:19:36;101084.16;;;2.19;76.91
55540;BME280;41384;51.418;7.286;2023-01-28T06:22:01;101085.47;;;2.02;77.28
55540;BME280;41384;51.418;7.286;2023-01-28T06:24:26;101079.19;;;1.93;78.37
55540;BME280;41384;51.418;7.286;2023-01-28T06:26:51;101080.84;;;1.83;78.38
55540;BME280;41384;51.418;7.286;2023-01-28T06:29:17;101087.84;;;1.82;77.99
55540;BME280;41384;51.418;7.286;2023-01-28T06:31:42;101084.41;;;1.82;77.42
55540;BME280;41384;51.418;7.286;2023-01-28T06:34:08;101081.44;;;2.09;76.95
55540;BME280;41384;51.418;7.286;2023-01-28T06:36:35;101083.81;;;2.12;76.52
55540;BME280;41384;51.418;7.286;2023-01-28T06:39:00;101077.50;;;2.15;77.03
55540;BME280;41384;51.418;7.286;2023-01-28T06:41:25;101082.63;;;1.82;76.52
55540;BME280;41384;51.418;7.286;2023-01-28T06:43:50;101086.91;;;2.06;77.07
55540;BME280;41384;51.418;7.286;2023-01-28T06:46:15;101077.63;;;2.25;77.30
55540;BME280;41384;51.418;7.286;2023-01-28T06:48:41;101085.09;;;2.18;76.44
55540;BME280;41384;51.418;7.286;2023-01-28T06:51:06;101091.16;;;2.18;77.61
55540;BME280;41384;51.418;7.286;2023-01-28T06:53:31;101086.06;;;2.06;77.49
55540;BME280;41384;51.418;7.286;2023-01-28T06:55:57;101083.81;;;2.01;76.20
55540;BME280;41384;51.418;7.286;2023-01-28T06:58:22;101097.41;;;2.16;76.27
55540;BME280;41384;51.418;7.286;2023-01-28T07:00:47;101088.78;;;1.93;77.39
55540;BME280;41384;51.418;7.286;2023-01-28T07:03:12;101086.28;;;2.02;77.43
55540;BME280;41384;51.418;7.286;2023-01-28T07:05:38;101069.25;;;2.21;76.82
55540;BME280;41384;51.418;7.286;2023-01-28T07:08:03;101070.16;;;2.43;76.88
55540;BME280;41384;51.418;7.286;2023-01-28T07:10:29;101074.44;;;1.98;78.01
55540;BME280;41384;51.418;7.286;2023-01-28T07:12:54;101079.16;;;2.39;78.17
55540;BME280;41384;51.418;7.286;2023-01-28T07:15:19;101084.63;;;2.36;78.02
55540;BME280;41384;51.418;7.286;2023-01-28T07:17:45;101094.22;;;2.24;76.67
55540;BME280;41384;51.418;7.286;2023-01-28T07:20:12;101085.72;;;2.10;74.90
55540;BME280;41384;51.418;7.286;2023-01-28T07:22:42;101085.59;;;1.89;77.02
55540;BME280;41384;51.418;7.286;2023-01-28T07:25:10;101086.28;;;2.02;75.87
55540;BME280;41384;51.418;7.286;2023-01-28T07:27:35;101093.63;;;1.86;76.54
55540;BME280;41384;51.418;7.286;2023-01-28T07:30:01;101090.31;;;1.95;77.25
55540;BME280;41384;51.418;7.286;2023-01-28T07:32:26;101088.66;;;1.83;76.24
55540;BME280;41384;51.418;7.286;2023-01-28T07:34:53;101086.75;;;1.96;75.93
55540;BME280;41384;51.418;7.286;2023-01-28T07:37:18;101086.28;;;2.14;75.91
55540;BME280;41384;51.418;7.286;2023-01-28T07:39:44;101089.50;;;2.17;76.88
55540;BME280;41384;51.418;7.286;2023-01-28T07:42:09;101084.41;;;1.82;76.83
55540;BME280;41384;51.418;7.286;2023-01-28T07:44:34;101087.22;;;2.01;77.64
55540;BME280;41384;51.418;7.286;2023-01-28T07:47:01;101095.41;;;1.85;78.60
55540;BME280;41384;51.418;7.286;2023-01-28T07:49:26;101100.72;;;2.07;77.11
55540;BME280;41384;51.418;7.286;2023-01-28T07:51:52;101096.47;;;2.17;76.29
55540;BME280;41384;51.418;7.286;2023-01-28T07:54:17;101096.69;;;2.14;75.46
55540;BME280;41384;51.418;7.286;2023-01-28T07:56:42;101103.34;;;2.07;76.87
55540;BME280;41384;51.418;7.286;2023-01-28T07:59:07;101097.19;;;2.08;76.39
55540;BME280;41384;51.418;7.286;2023-01-28T08:01:33;101103.94;;;1.87;77.40
55540;BME280;41384;51.418;7.286;2023-01-28T08:03:58;101109.97;;;2.11;75.15
55540;BME280;41384;51.418;7.286;2023-01-28T08:06:23;101110.78;;;1.77;75.36
55540;BME280;41384;51.418;7.286;2023-01-28T08:08:48;101111.63;;;2.12;75.72
55540;BME280;41384;51.418;7.286;2023-01-28T08:11:14;101111.63;;;2.00;74.99
55540;BME280;41384;51.418;7.286;2023-01-28T08:13:39;101122.16;;;1.99;75.47
55540;BME280;41384;51.418;7.286;2023-01-28T08:16:05;101133.78;;;2.17;74.33
55540;BME280;41384;51.418;7.286;2023-01-28T08:18:30;101130.47;;;2.04;74.88
55540;BME280;41384;51.418;7.286;2023-01-28T08:20:57;101129.84;;;1.89;75.73
55540;BME280;41384;51.418;7.286;2023-01-28T08:23:23;101127.72;;;2.17;73.76
55540;BME280;41384;51.418;7.286;2023-01-28T08:25:50;101141.72;;;2.39;73.22
55540;BME280;41384;51.418;7.286;2023-01-28T08:28:16;101147.75;;;2.28;73.46
55540;BME280;41384;51.418;7.286;2023-01-28T08:30:41;101151.31;;;2.15;74.61
55540;BME280;41384;51.418;7.286;2023-01-28T08:33:08;101146.78;;;1.83;74.58
55540;BME280;41384;51.418;7.286;2023-01-28T08:35:35;101138.34;;;1.80;75.38
55540;BME280;41384;51.418;7.286;2023-01-28T08:38:01;101156.84;;;1.99;74.17
55540;BME280;41384;51.418;7.286;2023-01-28T08:40:27;101150.72;;;2.23;73.70
55540;BME280;41384;51.418;7.286;2023-01-28T08:42:53;101165.09;;;1.70;74.29
55540;BME280;41384;51.418;7.286;2023-01-28T08:45:20;101167.63;;;1.95;74.87
55540;BME280;41384;51.418;7.286;2023-01-28T08:48:00;101162.44;;;2.17;74.64
55540;BME280;41384;51.418;7.286;2023-01-28T08:50:28;101175.34;;;2.30;74.43
55540;BME280;41384;51.418;7.286;2023-01-28T08:52:55;101186.22;;;2.13;73.45
55540;BME280;41384;51.418;7.286;2023-01-28T08:55:21;101183.28;;;2.17;72.47
55540;BME280;41384;51.418;7.286;2023-01-28T08:57:46;101182.91;;;2.11;73.35
55540;BME280;41384;51.418;7.286;2023-01-28T09:00:12;101203.69;;;1.88;73.22
55540;BME280;41384;51.418;7.286;2023-01-28T09:02:37;101189.28;;;2.18;74.86
55540;BME280;41384;51.418;7.286;2023-01-28T09:05:03;101206.38;;;2.22;71.93
55540;BME280;41384;51.418;7.286;2023-01-28T09:07:29;101217.84;;;2.19;72.26
55540;BME280;41384;51.418;7.286;2023-01-28T09:09:55;101203.31;;;2.28;73.70
55540;BME280;41384;51.418;7.286;2023-01-28T09:12:20;101215.16;;;2.44;73.90
55540;BME280;41384;51.418;7.286;2023-01-28T09:14:45;101223.69;;;2.35;71.24
55540;BME280;41384;51.418;7.286;2023-01-28T09:17:11;101224.31;;;2.02;72.75
55540;BME280;41384;51.418;7.286;2023-01-28T09:19:36;101223.03;;;2.08;73.05
55540;BME280;41384;51.418;7.286;2023-01-28T09:22:05;101226.34;;;1.99;73.28
55540;BME280;41384;51.418;7.286;2023-01-28T09:24:30;101216.97;;;1.96;73.76
55540;BME280;41384;51.418;7.286;2023-01-28T09:26:55;101218.28;;;1.91;71.91
55540;BME280;41384;51.418;7.286;2023-01-28T09:29:21;101218.19;;;2.15;74.10
55540;BME280;41384;51.418;7.286;2023-01-28T09:31:46;101232.19;;;2.25;73.84
55540;BME280;41384;51.418;7.286;2023-01-28T09:34:11;101220.13;;;2.24;72.54
55540;BME280;41384;51.418;7.286;2023-01-28T09:36:37;101216.34;;;2.28;72.31
55540;BME280;41384;51.418;7.286;2023-01-28T09:39:03;101208.75;;;2.37;74.61
55540;BME280;41384;51.418;7.286;2023-01-28T09:42:20;101227.19;;;2.11;73.51
55540;BME280;41384;51.418;7.286;2023-01-28T09:44:44;101242.50;;;1.80;71.80
55540;BME280;41384;51.418;7.286;2023-01-28T09:47:25;101230.75;;;1.74;74.41
55540;BME280;41384;51.418;7.286;2023-01-28T09:49:53;101228.25;;;1.61;73.91
55540;BME280;41384;51.418;7.286;2023-01-28T09:52:22;101236.19;;;1.71;72.86
55540;BME280;41384;51.418;7.286;2023-01-28T09:55:00;101236.63;;;2.00;71.94
55540;BME280;41384;51.418;7.286;2023-01-28T09:57:44;101246.25;;;2.11;72.08
55540;BME280;41384;51.418;7.286;2023-01-28T10:00:17;101248.25;;;2.19;70.87
55540;BME280;41384;51.418;7.286;2023-01-28T10:05:42;101236.88;;;1.97;71.90
55540;BME280;41384;51.418;7.286;2023-01-28T10:10:56;101237.44;;;1.89;72.01
55540;BME280;41384;51.418;7.286;2023-01-28T10:14:04;101233.59;;;1.71;71.91
55540;BME280;41384;51.418;7.286;2023-01-28T10:16:41;101235.94;;;1.74;72.35
55540;BME280;41384;51.418;7.286;2023-01-28T10:19:22;101234.38;;;1.96;72.29
55540;BME280;41384;51.418;7.286;2023-01-28T10:21:55;101239.63;;;2.18;72.00
55540;BME280;41384;51.418;7.286;2023-01-28T10:24:28;101239.94;;;1.91;72.08
55540;BME280;41384;51.418;7.286;2023-01-28T10:26:55;101228.47;;;2.05;72.01
55540;BME280;41384;51.418;7.286;2023-01-28T10:29:23;101225.09;;;2.27;71.43
55540;BME280;41384;51.418;7.286;2023-01-28T10:32:03;101212.06;;;2.27;70.71
55540;BME280;41384;51.418;7.286;2023-01-28T10:34:30;101211.94;;;2.29;69.42
55540;BME280;41384;51.418;7.286;2023-01-28T10:36:56;101209.81;;;2.34;71.02
55540;BME280;41384;51.418;7.286;2023-01-28T10:39:23;101216.44;;;2.61;70.09
55540;BME280;41384;51.418;7.286;2023-01-28T10:41:49;101230.53;;;2.24;71.67
55540;BME280;41384;51.418;7.286;2023-01-28T10:44:29;101205.78;;;2.18;69.10
55540;BME280;41384;51.418;7.286;2023-01-28T10:46:58;101212.31;;;2.24;69.48
55540;BME280;41384;51.418;7.286;2023-01-28T10:49:28;101208.03;;;2.23;70.35
55540;BME280;41384;51.418;7.286;2023-01-28T10:51:54;101211.31;;;2.02;70.57
55540;BME280;41384;51.418;7.286;2023-01-28T10:54:27;101214.44;;;2.42;70.95
55540;BME280;41384;51.418;7.286;2023-01-28T10:56:55;101224.97;;;2.29;70.32
55540;BME280;41384;51.418;7.286;2023-01-28T10:59:27;101230.56;;;2.47;70.05
55540;BME280;41384;51.418;7.286;2023-01-28T11:01:58;101244.91;;;1.94;70.72
55540;BME280;41384;51.418;7.286;2023-01-28T11:04:34;101234.44;;;2.18;71.71
55540;BME280;41384;51.418;7.286;2023-01-28T11:09:29;101232.44;;;2.56;72.33
55540;BME280;41384;51.418;7.286;2023-01-28T11:11:55;101238.47;;;2.45;71.14
55540;BME280;41384;51.418;7.286;2023-01-28T11:14:23;101247.56;;;2.17;69.18
55540;BME280;41384;51.418;7.286;2023-01-28T11:16:51;101258.06;;;1.68;70.42
55540;BME280;41384;51.418;7.286;2023-01-28T11:19:18;101259.50;;;1.97;70.99
55540;BME280;41384;51.418;7.286;2023-01-28T11:21:53;101257.19;;;2.28;70.34
55540;BME280;41384;51.418;7.286;2023-01-28T11:24:22;101255.84;;;2.11;70.02
55540;BME280;41384;51.418;7.286;2023-01-28T11:26:52;101253.75;;;2.39;71.74
55540;BME280;41384;51.418;7.286;2023-01-28T11:29:25;101262.44;;;2.03;70.49
55540;BME280;41384;51.418;7.286;2023-01-28T11:31:51;101256.47;;;2.37;71.31
55540;BME280;41384;51.418;7.286;2023-01-28T11:34:18;101251.63;;;2.44;71.07
55540;BME280;41384;51.418;7.286;2023-01-28T11:36:52;101248.31;;;2.42;68.34
55540;BME280;41384;51.418;7.286;2023-01-28T11:39:22;101234.69;;;2.50;69.63
55540;BME280;41384;51.418;7.286;2023-01-28T11:41:49;101223.69;;;2.46;69.72
55540;BME280;41384;51.418;7.286;2023-01-28T11:44:21;101227.69;;;2.61;69.86
55540;BME280;41384;51.418;7.286;2023-01-28T11:47:21;101232.31;;;2.58;69.49
55540;BME280;41384;51.418;7.286;2023-01-28T11:50:17;101232.69;;;2.30;70.43
55540;BME280;41384;51.418;7.286;2023-01-28T11:58:20;101225.69;;;2.54;70.82
55540;BME280;41384;51.418;7.286;2023-01-28T12:00:56;101216.94;;;2.66;71.37
55540;BME280;41384;51.418;7.286;2023-01-28T12:08:50;101221.06;;;2.57;71.76
55540;BME280;41384;51.418;7.286;2023-01-28T12:11:34;101218.81;;;2.64;70.14
55540;BME280;41384;51.418;7.286;2023-01-28T12:19:45;101214.44;;;2.30;71.15
55540;BME280;41384;51.418;7.286;2023-01-28T12:31:37;101166.34;;;2.35;70.89
55540;BME280;41384;51.418;7.286;2023-01-28T12:44:54;101168.81;;;2.47;69.69
55540;BME280;41384;51.418;7.286;2023-01-28T12:47:25;101153.75;;;2.62;70.00
55540;BME280;41384;51.418;7.286;2023-01-28T12:49:55;101139.69;;;2.42;70.00
55540;BME280;41384;51.418;7.286;2023-01-28T12:52:38;101129.13;;;2.55;69.49
55540;BME280;41384;51.418;7.286;2023-01-28T12:55:16;101111.38;;;2.93;69.42
55540;BME280;41384;51.418;7.286;2023-01-28T12:57:44;101092.28;;;2.92;71.95
55540;BME280;41384;51.418;7.286;2023-01-28T13:03:29;101083.28;;;2.53;70.33
55540;BME280;41384;51.418;7.286;2023-01-28T13:06:02;101064.91;;;2.54;70.90
55540;BME280;41384;51.418;7.286;2023-01-28T13:08:30;101065.47;;;2.69;69.40
55540;BME280;41384;51.418;7.286;2023-01-28T13:10:57;101064.22;;;2.85;69.27
55540;BME280;41384;51.418;7.286;2023-01-28T13:15:54;101095.84;;;2.47;69.09
55540;BME280;41384;51.418;7.286;2023-01-28T13:21:05;101104.38;;;2.94;68.98
55540;BME280;41384;51.418;7.286;2023-01-28T13:31:46;101123.78;;;2.68;69.67
55540;BME280;41384;51.418;7.286;2023-01-28T13:37:00;101119.28;;;2.70;68.28
55540;BME280;41384;51.418;7.286;2023-01-28T13:39:26;101108.84;;;2.70;69.34
55540;BME280;41384;51.418;7.286;2023-01-28T13:42:06;101119.53;;;2.67;67.64
55540;BME280;41384;51.418;7.286;2023-01-28T13:44:33;101126.06;;;1.93;69.78
55540;BME280;41384;51.418;7.286;2023-01-28T13:49:41;101129.84;;;2.12;69.72
55540;BME280;41384;51.418;7.286;2023-01-28T13:54:49;101141.69;;;2.04;69.19
55540;BME280;41384;51.418;7.286;2023-01-28T14:00:27;101143.38;;;2.28;69.00
55540;BME280;41384;51.418;7.286;2023-01-28T14:06:12;101159.66;;;1.85;70.11
55540;BME280;41384;51.418;7.286;2023-01-28T14:09:17;101160.53;;;2.19;69.69
55540;BME280;41384;51.418;7.286;2023-01-28T14:15:24;101165.50;;;2.45;69.97
55540;BME280;41384;51.418;7.286;2023-01-28T14:17:56;101157.69;;;2.23;69.27
55540;BME280;41384;51.418;7.286;2023-01-28T14:20:31;101158.31;;;2.26;69.20
55540;BME280;41384;51.418;7.286;2023-01-28T14:23:05;101154.03;;;2.25;69.01
55540;BME280;41384;51.418;7.286;2023-01-28T14:31:04;101129.16;;;2.21;68.53
55540;BME280;41384;51.418;7.286;2023-01-28T14:33:34;101122.28;;;2.31;68.15
55540;BME280;41384;51.418;7.286;2023-01-28T14:36:00;101107.34;;;2.45;67.05
55540;BME280;41384;51.418;7.286;2023-01-28T14:38:25;101112.88;;;2.63;67.81
55540;BME280;41384;51.418;7.286;2023-01-28T14:40:53;101106.31;;;2.80;68.93
55540;BME280;41384;51.418;7.286;2023-01-28T14:43:24;101091.66;;;2.68;66.92
55540;BME280;41384;51.418;7.286;2023-01-28T14:46:24;101094.50;;;2.65;67.88
55540;BME280;41384;51.418;7.286;2023-01-28T14:52:02;101079.34;;;2.58;67.41
55540;BME280;41384;51.418;7.286;2023-01-28T14:55:34;101081.63;;;2.52;68.01
55540;BME280;41384;51.418;7.286;2023-01-28T15:00:18;101092.81;;;2.75;67.69